sensor_id;sensor_type;location;lat;lon;timestamp;pressure;altitude;pressure_sealevel;temperature;humidity
66164;BME280;52962;51.088;3.096;2023-11-21T00:00:08;100903.19;;;11.14;100.00
66164;BME280;52962;51.088;3.096;2023-11-21T00:02:40;100903.53;;;11.33;100.00
66164;BME280;52962;51.088;3.096;2023-11-21T00:05:09;100916.59;;;11.25;100.00
66164;BME280;52962;51.088;3.096;2023-11-21T00:07:37;100913.00;;;11.22;100.00
66164;BME280;52962;51.088;3.096;2023-11-21T00:10:08;100918.34;;;11.25;100.00
66164;BME280;52962;51.088;3.096;2023-11-21T00:12:38;100916.19;;;11.05;100.00
66164;BME280;52962;51.088;3.096;2023-11-21T00:15:10;100924.88;;;11.00;100.00
66164;BME280;52962;51.088;3.096;2023-11-21T00:17:39;100917.19;;;11.10;100.00
66164;BME280;52962;51.088;3.096;2023-11-21T00:20:09;100922.38;;;11.07;100.00
66164;BME280;52962;51.088;3.096;2023-11-21T00:22:41;100918.72;;;10.99;100.00
66164;BME280;52962;51.088;3.096;2023-11-21T00:25:11;100915.16;;;10.97;100.00
66164;BME280;52962;51.088;3.096;2023-11-21T00:27:42;100914.69;;;11.18;100.00
66164;BME280;52962;51.088;3.096;2023-11-21T00:30:12;100923.53;;;11.22;100.00
66164;BME280;52962;51.088;3.096;2023-11-21T00:32:40;100908.66;;;11.24;100.00
66164;BME280;52962;51.088;3.096;2023-11-21T00:35:09;100925.31;;;11.23;100.00
66164;BME280;52962;51.088;3.096;2023-11-21T00:37:37;100917.88;;;11.02;100.00
66164;BME280;52962;51.088;3.096;2023-11-21T00:40:07;100919.19;;;11.24;100.00
66164;BME280;52962;51.088;3.096;2023-11-21T00:42:38;100918.28;;;11.22;100.00
66164;BME280;52962;51.088;3.096;2023-11-21T00:45:08;100921.78;;;11.22;100.00
66164;BME280;52962;51.088;3.096;2023-11-21T00:47:37;100926.47;;;11.37;100.00
66164;BME280;52962;51.088;3.096;2023-11-21T00:50:07;100921.09;;;11.31;100.00
66164;BME280;52962;51.088;3.096;2023-11-21T00:52:37;100928.19;;;11.35;100.00
66164;BME280;52962;51.088;3.096;2023-11-21T00:55:05;100933.75;;;11.53;100.00
66164;BME280;52962;51.088;3.096;2023-11-21T00:57:35;100936.09;;;11.35;100.00
66164;BME280;52962;51.088;3.096;2023-11-21T01:00:07;100937.00;;;11.37;100.00
66164;BME280;52962;51.088;3.096;2023-11-21T01:02:40;100931.56;;;11.28;100.00
66164;BME280;52962;51.088;3.096;2023-11-21T01:05:10;100936.97;;;11.34;100.00
66164;BME280;52962;51.088;3.096;2023-11-21T01:07:38;100931.75;;;11.37;100.00
66164;BME280;52962;51.088;3.096;2023-11-21T01:10:06;100937.22;;;11.49;100.00
66164;BME280;52962;51.088;3.096;2023-11-21T01:12:36;100941.63;;;11.50;100.00
66164;BME280;52962;51.088;3.096;2023-11-21T01:15:07;100938.94;;;11.47;100.00
66164;BME280;52962;51.088;3.096;2023-11-21T01:17:35;100946.09;;;11.54;100.00
66164;BME280;52962;51.088;3.096;2023-11-21T01:20:06;100940.19;;;11.69;100.00
66164;BME280;52962;51.088;3.096;2023-11-21T01:22:39;100955.00;;;11.61;100.00
66164;BME280;52962;51.088;3.096;2023-11-21T01:25:08;100944.69;;;11.74;100.00
66164;BME280;52962;51.088;3.096;2023-11-21T01:27:38;100953.19;;;11.58;100.00
66164;BME280;52962;51.088;3.096;2023-11-21T01:30:09;100954.88;;;11.53;100.00
66164;BME280;52962;51.088;3.096;2023-11-21T01:32:37;100958.47;;;11.58;100.00
66164;BME280;52962;51.088;3.096;2023-11-21T01:35:07;100950.66;;;11.63;100.00
66164;BME280;52962;51.088;3.096;2023-11-21T01:37:37;100955.88;;;11.60;100.00
66164;BME280;52962;51.088;3.096;2023-11-21T01:40:07;100956.81;;;11.63;100.00
66164;BME280;52962;51.088;3.096;2023-11-21T01:42:40;100964.72;;;11.63;100.00
66164;BME280;52962;51.088;3.096;2023-11-21T01:45:12;100963.84;;;11.64;100.00
66164;BME280;52962;51.088;3.096;2023-11-21T01:47:41;100971.91;;;11.72;100.00
66164;BME280;52962;51.088;3.096;2023-11-21T01:50:14;100965.72;;;11.70;100.00
66164;BME280;52962;51.088;3.096;2023-11-21T01:52:45;100968.44;;;11.74;100.00
66164;BME280;52962;51.088;3.096;2023-11-21T01:55:17;100969.94;;;11.60;100.00
66164;BME280;52962;51.088;3.096;2023-11-21T01:57:55;100973.63;;;11.70;100.00
66164;BME280;52962;51.088;3.096;2023-11-21T02:00:26;100976.47;;;11.79;100.00
66164;BME280;52962;51.088;3.096;2023-11-21T02:02:56;100964.22;;;11.83;100.00
66164;BME280;52962;51.088;3.096;2023-11-21T02:05:27;100970.47;;;11.88;100.00
66164;BME280;52962;51.088;3.096;2023-11-21T02:07:57;100978.44;;;11.91;100.00
66164;BME280;52962;51.088;3.096;2023-11-21T02:10:28;100967.00;;;11.90;100.00
66164;BME280;52962;51.088;3.096;2023-11-21T02:12:58;100974.13;;;11.96;100.00
66164;BME280;52962;51.088;3.096;2023-11-21T02:15:31;100974.94;;;11.92;100.00
66164;BME280;52962;51.088;3.096;2023-11-21T02:17:59;100978.31;;;11.85;100.00
66164;BME280;52962;51.088;3.096;2023-11-21T02:20:30;100973.22;;;11.95;100.00
66164;BME280;52962;51.088;3.096;2023-11-21T02:23:04;100980.00;;;11.79;100.00
66164;BME280;52962;51.088;3.096;2023-11-21T02:25:33;100989.16;;;12.00;100.00
66164;BME280;52962;51.088;3.096;2023-11-21T02:28:04;100984.81;;;12.03;100.00
66164;BME280;52962;51.088;3.096;2023-11-21T02:30:33;100985.66;;;12.01;100.00
66164;BME280;52962;51.088;3.096;2023-11-21T02:33:02;100985.66;;;12.02;100.00
66164;BME280;52962;51.088;3.096;2023-11-21T02:35:32;100991.84;;;12.03;100.00
66164;BME280;52962;51.088;3.096;2023-11-21T02:38:03;100990.03;;;12.00;100.00
66164;BME280;52962;51.088;3.096;2023-11-21T02:40:33;100982.00;;;11.94;100.00
66164;BME280;52962;51.088;3.096;2023-11-21T02:43:02;100984.81;;;12.03;100.00
66164;BME280;52962;51.088;3.096;2023-11-21T02:45:32;100980.38;;;12.02;100.00
66164;BME280;52962;51.088;3.096;2023-11-21T02:48:01;100971.59;;;12.02;100.00
66164;BME280;52962;51.088;3.096;2023-11-21T02:50:29;100978.63;;;12.03;100.00
66164;BME280;52962;51.088;3.096;2023-11-21T02:52:57;100985.75;;;12.07;100.00
66164;BME280;52962;51.088;3.096;2023-11-21T02:55:29;100989.19;;;12.03;100.00
66164;BME280;52962;51.088;3.096;2023-11-21T02:57:58;100974.28;;;12.06;100.00
66164;BME280;52962;51.088;3.096;2023-11-21T03:00:27;100984.03;;;12.10;100.00
66164;BME280;52962;51.088;3.096;2023-11-21T03:02:55;100988.34;;;12.05;100.00
66164;BME280;52962;51.088;3.096;2023-11-21T03:05:25;100986.59;;;12.06;100.00
66164;BME280;52962;51.088;3.096;2023-11-21T03:07:54;100984.03;;;12.09;100.00
66164;BME280;52962;51.088;3.096;2023-11-21T03:10:22;100982.25;;;12.08;100.00
66164;BME280;52962;51.088;3.096;2023-11-21T03:12:52;100985.81;;;12.11;100.00
66164;BME280;52962;51.088;3.096;2023-11-21T03:15:20;100990.38;;;12.20;100.00
66164;BME280;52962;51.088;3.096;2023-11-21T03:17:48;100985.09;;;12.20;100.00
66164;BME280;52962;51.088;3.096;2023-11-21T03:20:17;100985.94;;;12.19;100.00
66164;BME280;52962;51.088;3.096;2023-11-21T03:22:46;100989.44;;;12.18;100.00
66164;BME280;52962;51.088;3.096;2023-11-21T03:25:16;100980.63;;;12.16;100.00
66164;BME280;52962;51.088;3.096;2023-11-21T03:27:45;100984.16;;;12.18;100.00
66164;BME280;52962;51.088;3.096;2023-11-21T03:30:15;100990.28;;;12.16;100.00
66164;BME280;52962;51.088;3.096;2023-11-21T03:32:44;100989.25;;;12.06;100.00
66164;BME280;52962;51.088;3.096;2023-11-21T03:35:14;100988.47;;;12.11;100.00
66164;BME280;52962;51.088;3.096;2023-11-21T03:37:42;100985.94;;;12.19;100.00
66164;BME280;52962;51.088;3.096;2023-11-21T03:40:11;100993.59;;;12.02;100.00
66164;BME280;52962;51.088;3.096;2023-11-21T03:42:40;100993.03;;;12.22;100.00
66164;BME280;52962;51.088;3.096;2023-11-21T03:45:09;100998.34;;;12.23;100.00
66164;BME280;52962;51.088;3.096;2023-11-21T03:47:41;100989.34;;;12.12;100.00
66164;BME280;52962;51.088;3.096;2023-11-21T03:50:10;100999.84;;;12.09;100.00
66164;BME280;52962;51.088;3.096;2023-11-21T03:52:39;100992.81;;;12.08;100.00
66164;BME280;52962;51.088;3.096;2023-11-21T03:55:09;101008.69;;;12.11;100.00
66164;BME280;52962;51.088;3.096;2023-11-21T03:57:41;101012.19;;;12.10;100.00
66164;BME280;52962;51.088;3.096;2023-11-21T04:00:10;101005.13;;;12.09;100.00
66164;BME280;52962;51.088;3.096;2023-11-21T04:02:38;101015.75;;;12.12;100.00
66164;BME280;52962;51.088;3.096;2023-11-21T04:05:09;101021.09;;;12.17;100.00
66164;BME280;52962;51.088;3.096;2023-11-21T04:07:38;101020.78;;;11.98;100.00
66164;BME280;52962;51.088;3.096;2023-11-21T04:10:07;101018.56;;;12.23;100.00
66164;BME280;52962;51.088;3.096;2023-11-21T04:12:36;101019.56;;;12.29;100.00
66164;BME280;52962;51.088;3.096;2023-11-21T04:15:06;101034.63;;;12.35;100.00
66164;BME280;52962;51.088;3.096;2023-11-21T04:17:36;101036.47;;;12.40;100.00
66164;BME280;52962;51.088;3.096;2023-11-21T04:20:06;101037.69;;;12.64;100.00
66164;BME280;52962;51.088;3.096;2023-11-21T04:22:40;101041.28;;;12.69;100.00
66164;BME280;52962;51.088;3.096;2023-11-21T04:25:13;101043.13;;;12.74;100.00
66164;BME280;52962;51.088;3.096;2023-11-21T04:27:44;101039.63;;;12.77;100.00
66164;BME280;52962;51.088;3.096;2023-11-21T04:30:13;101040.66;;;12.87;100.00
66164;BME280;52962;51.088;3.096;2023-11-21T04:32:43;101031.69;;;12.75;100.00
66164;BME280;52962;51.088;3.096;2023-11-21T04:35:11;101034.44;;;12.83;100.00
66164;BME280;52962;51.088;3.096;2023-11-21T04:37:41;101043.09;;;12.73;100.00
66164;BME280;52962;51.088;3.096;2023-11-21T04:40:11;101051.84;;;12.69;100.00
66164;BME280;52962;51.088;3.096;2023-11-21T04:42:39;101052.78;;;12.72;100.00
66164;BME280;52962;51.088;3.096;2023-11-21T04:45:09;101059.00;;;12.76;100.00
66164;BME280;52962;51.088;3.096;2023-11-21T04:47:40;101058.13;;;12.77;100.00
66164;BME280;52962;51.088;3.096;2023-11-21T04:50:09;101066.25;;;12.89;100.00
66164;BME280;52962;51.088;3.096;2023-11-21T04:52:38;101068.09;;;12.96;100.00
66164;BME280;52962;51.088;3.096;2023-11-21T04:55:08;101071.56;;;12.92;100.00
66164;BME280;52962;51.088;3.096;2023-11-21T04:57:38;101075.94;;;12.89;100.00
66164;BME280;52962;51.088;3.096;2023-11-21T05:00:09;101090.94;;;12.91;100.00
66164;BME280;52962;51.088;3.096;2023-11-21T05:02:40;101091.84;;;12.93;100.00
66164;BME280;52962;51.088;3.096;2023-11-21T05:05:09;101096.22;;;12.91;100.00
66164;BME280;52962;51.088;3.096;2023-11-21T05:07:39;101099.75;;;12.92;100.00
66164;BME280;52962;51.088;3.096;2023-11-21T05:10:10;101093.56;;;12.90;100.00
66164;BME280;52962;51.088;3.096;2023-11-21T05:12:41;101099.75;;;12.90;100.00
66164;BME280;52962;51.088;3.096;2023-11-21T05:15:14;101113.00;;;12.93;100.00
66164;BME280;52962;51.088;3.096;2023-11-21T05:17:43;101109.50;;;12.96;100.00
66164;BME280;52962;51.088;3.096;2023-11-21T05:20:13;101116.53;;;12.94;100.00
66164;BME280;52962;51.088;3.096;2023-11-21T05:22:45;101119.28;;;13.01;100.00
66164;BME280;52962;51.088;3.096;2023-11-21T05:25:15;101127.94;;;12.91;100.00
66164;BME280;52962;51.088;3.096;2023-11-21T05:27:45;101133.16;;;12.87;100.00
66164;BME280;52962;51.088;3.096;2023-11-21T05:30:14;101139.28;;;12.84;100.00
66164;BME280;52962;51.088;3.096;2023-11-21T05:32:42;101145.34;;;12.77;100.00
66164;BME280;52962;51.088;3.096;2023-11-21T05:35:11;101141.81;;;12.76;100.00
66164;BME280;52962;51.088;3.096;2023-11-21T05:37:43;101149.69;;;12.73;100.00
66164;BME280;52962;51.088;3.096;2023-11-21T05:40:14;101151.41;;;12.70;100.00
66164;BME280;52962;51.088;3.096;2023-11-21T05:42:44;101148.69;;;12.67;100.00
66164;BME280;52962;51.088;3.096;2023-11-21T05:45:13;101156.53;;;12.62;100.00
66164;BME280;52962;51.088;3.096;2023-11-21T05:47:43;101154.72;;;12.58;100.00
66164;BME280;52962;51.088;3.096;2023-11-21T05:50:14;101167.03;;;12.58;100.00
66164;BME280;52962;51.088;3.096;2023-11-21T05:52:45;101169.63;;;12.55;100.00
66164;BME280;52962;51.088;3.096;2023-11-21T05:55:15;101163.47;;;12.56;100.00
66164;BME280;52962;51.088;3.096;2023-11-21T05:57:44;101170.47;;;12.52;100.00
66164;BME280;52962;51.088;3.096;2023-11-21T06:00:14;101186.25;;;12.49;100.00
66164;BME280;52962;51.088;3.096;2023-11-21T06:02:49;101187.09;;;12.45;100.00
66164;BME280;52962;51.088;3.096;2023-11-21T06:05:23;101184.41;;;12.42;100.00
66164;BME280;52962;51.088;3.096;2023-11-21T06:07:54;101191.50;;;12.44;100.00
66164;BME280;52962;51.088;3.096;2023-11-21T06:10:25;101192.38;;;12.45;100.00
66164;BME280;52962;51.088;3.096;2023-11-21T06:12:53;101200.34;;;12.50;100.00
66164;BME280;52962;51.088;3.096;2023-11-21T06:15:22;101210.06;;;12.51;100.00
66164;BME280;52962;51.088;3.096;2023-11-21T06:17:51;101212.81;;;12.57;100.00
66164;BME280;52962;51.088;3.096;2023-11-21T06:20:21;101217.28;;;12.61;100.00
66164;BME280;52962;51.088;3.096;2023-11-21T06:22:50;101220.78;;;12.60;100.00
66164;BME280;52962;51.088;3.096;2023-11-21T06:25:19;101231.06;;;12.41;100.00
66164;BME280;52962;51.088;3.096;2023-11-21T06:27:50;101228.72;;;12.60;100.00
66164;BME280;52962;51.088;3.096;2023-11-21T06:30:18;101229.69;;;12.65;100.00
66164;BME280;52962;51.088;3.096;2023-11-21T06:32:47;101239.47;;;12.69;100.00
66164;BME280;52962;51.088;3.096;2023-11-21T06:35:17;101232.47;;;12.72;100.00
66164;BME280;52962;51.088;3.096;2023-11-21T06:37:45;101236.94;;;12.75;100.00
66164;BME280;52962;51.088;3.096;2023-11-21T06:40:17;101240.47;;;12.77;100.00
66164;BME280;52962;51.088;3.096;2023-11-21T06:42:48;101248.41;;;12.77;100.00
66164;BME280;52962;51.088;3.096;2023-11-21T06:45:17;101250.22;;;12.80;100.00
66164;BME280;52962;51.088;3.096;2023-11-21T06:47:47;101250.16;;;12.76;100.00
66164;BME280;52962;51.088;3.096;2023-11-21T06:50:17;101257.19;;;12.76;100.00
66164;BME280;52962;51.088;3.096;2023-11-21T06:52:46;101254.50;;;12.73;100.00
66164;BME280;52962;51.088;3.096;2023-11-21T06:55:15;101260.63;;;12.70;100.00
66164;BME280;52962;51.088;3.096;2023-11-21T06:57:44;101266.75;;;12.68;100.00
66164;BME280;52962;51.088;3.096;2023-11-21T07:00:17;101271.97;;;12.65;100.00
66164;BME280;52962;51.088;3.096;2023-11-21T07:02:47;101275.47;;;12.64;100.00
66164;BME280;52962;51.088;3.096;2023-11-21T07:05:16;101279.78;;;12.59;100.00
66164;BME280;52962;51.088;3.096;2023-11-21T07:07:49;101285.03;;;12.57;100.00
66164;BME280;52962;51.088;3.096;2023-11-21T07:10:22;101278.81;;;12.54;100.00
66164;BME280;52962;51.088;3.096;2023-11-21T07:12:51;101284.09;;;12.54;100.00
66164;BME280;52962;51.088;3.096;2023-11-21T07:15:21;101292.78;;;12.48;100.00
66164;BME280;52962;51.088;3.096;2023-11-21T07:17:53;101302.53;;;12.52;100.00
66164;BME280;52962;51.088;3.096;2023-11-21T07:20:26;101313.19;;;12.55;100.00
66164;BME280;52962;51.088;3.096;2023-11-21T07:23:04;101319.41;;;12.59;100.00
66164;BME280;52962;51.088;3.096;2023-11-21T07:25:32;101320.38;;;12.62;100.00
66164;BME280;52962;51.088;3.096;2023-11-21T07:28:19;101323.84;;;12.60;100.00
66164;BME280;52962;51.088;3.096;2023-11-21T07:30:50;101329.97;;;12.59;100.00
66164;BME280;52962;51.088;3.096;2023-11-21T07:33:46;101337.91;;;12.59;100.00
66164;BME280;52962;51.088;3.096;2023-11-21T07:36:15;101344.19;;;12.64;100.00
66164;BME280;52962;51.088;3.096;2023-11-21T07:38:46;101338.94;;;12.67;100.00
66164;BME280;52962;51.088;3.096;2023-11-21T07:41:16;101343.47;;;12.72;100.00
66164;BME280;52962;51.088;3.096;2023-11-21T07:43:57;101348.00;;;12.80;100.00
66164;BME280;52962;51.088;3.096;2023-11-21T07:46:28;101359.50;;;12.82;100.00
66164;BME280;52962;51.088;3.096;2023-11-21T07:48:57;101368.41;;;12.87;100.00
66164;BME280;52962;51.088;3.096;2023-11-21T07:51:27;101366.78;;;12.93;100.00
66164;BME280;52962;51.088;3.096;2023-11-21T07:53:56;101372.94;;;12.92;100.00
66164;BME280;52962;51.088;3.096;2023-11-21T07:56:25;101372.88;;;12.89;100.00
66164;BME280;52962;51.088;3.096;2023-11-21T07:58:54;101376.38;;;12.88;100.00
66164;BME280;52962;51.088;3.096;2023-11-21T08:01:23;101380.00;;;12.93;100.00
66164;BME280;52962;51.088;3.096;2023-11-21T08:03:54;101382.75;;;12.99;100.00
66164;BME280;52962;51.088;3.096;2023-11-21T08:06:29;101387.25;;;13.03;100.00
66164;BME280;52962;51.088;3.096;2023-11-21T08:08:58;101373.16;;;13.04;100.00
66164;BME280;52962;51.088;3.096;2023-11-21T08:11:28;101372.31;;;13.05;100.00
66164;BME280;52962;51.088;3.096;2023-11-21T08:13:59;101371.44;;;13.06;100.00
66164;BME280;52962;51.088;3.096;2023-11-21T08:20:24;101396.75;;;12.94;100.00
66164;BME280;52962;51.088;3.096;2023-11-21T08:22:54;101397.69;;;12.97;100.00
66164;BME280;52962;51.088;3.096;2023-11-21T08:28:44;101404.81;;;13.01;100.00
66164;BME280;52962;51.088;3.096;2023-11-21T08:31:14;101404.78;;;12.98;100.00
66164;BME280;52962;51.088;3.096;2023-11-21T08:33:56;101410.66;;;12.84;100.00
66164;BME280;52962;51.088;3.096;2023-11-21T08:36:26;101415.09;;;12.86;100.00
66164;BME280;52962;51.088;3.096;2023-11-21T08:39:28;101409.75;;;12.83;100.00
66164;BME280;52962;51.088;3.096;2023-11-21T08:42:00;101419.50;;;12.86;100.00
66164;BME280;52962;51.088;3.096;2023-11-21T08:44:31;101419.59;;;12.90;100.00
66164;BME280;52962;51.088;3.096;2023-11-21T08:47:05;101427.47;;;12.87;100.00
66164;BME280;52962;51.088;3.096;2023-11-21T08:49:43;101426.63;;;12.90;100.00
66164;BME280;52962;51.088;3.096;2023-11-21T08:52:14;101425.03;;;12.98;100.00
66164;BME280;52962;51.088;3.096;2023-11-21T08:54:45;101425.22;;;13.07;100.00
66164;BME280;52962;51.088;3.096;2023-11-21T08:57:15;101423.66;;;13.17;100.00
66164;BME280;52962;51.088;3.096;2023-11-21T09:00:10;101427.38;;;13.26;100.00
66164;BME280;52962;51.088;3.096;2023-11-21T09:02:39;101423.28;;;13.44;100.00
66164;BME280;52962;51.088;3.096;2023-11-21T09:05:10;101423.53;;;13.59;100.00
66164;BME280;52962;51.088;3.096;2023-11-21T09:07:53;101437.94;;;13.76;100.00
66164;BME280;52962;51.088;3.096;2023-11-21T09:14:29;101456.41;;;13.73;100.00
66164;BME280;52962;51.088;3.096;2023-11-21T09:16:57;101466.94;;;13.68;100.00
66164;BME280;52962;51.088;3.096;2023-11-21T09:19:26;101465.13;;;13.66;100.00
66164;BME280;52962;51.088;3.096;2023-11-21T09:21:56;101464.94;;;13.57;100.00
66164;BME280;52962;51.088;3.096;2023-11-21T09:24:27;101477.22;;;13.53;100.00
66164;BME280;52962;51.088;3.096;2023-11-21T09:26:57;101481.66;;;13.54;100.00
66164;BME280;52962;51.088;3.096;2023-11-21T09:29:28;101489.66;;;13.57;100.00
66164;BME280;52962;51.088;3.096;2023-11-21T09:31:57;101495.72;;;13.50;100.00
66164;BME280;52962;51.088;3.096;2023-11-21T09:34:27;101493.06;;;13.49;100.00
66164;BME280;52962;51.088;3.096;2023-11-21T09:36:56;101497.44;;;13.47;100.00
66164;BME280;52962;51.088;3.096;2023-11-21T09:39:26;101506.22;;;13.46;100.00
66164;BME280;52962;51.088;3.096;2023-11-21T09:42:00;101509.88;;;13.54;100.00
66164;BME280;52962;51.088;3.096;2023-11-21T09:44:35;101514.44;;;13.62;100.00
66164;BME280;52962;51.088;3.096;2023-11-21T09:47:05;101520.72;;;13.67;100.00
66164;BME280;52962;51.088;3.096;2023-11-21T09:50:01;101523.25;;;13.61;100.00
66164;BME280;52962;51.088;3.096;2023-11-21T09:52:31;101528.69;;;13.69;100.00
66164;BME280;52962;51.088;3.096;2023-11-21T09:55:02;101542.91;;;13.74;100.00
66164;BME280;52962;51.088;3.096;2023-11-21T09:57:33;101551.50;;;13.62;100.00
66164;BME280;52962;51.088;3.096;2023-11-21T10:00:17;101552.09;;;13.46;100.00
66164;BME280;52962;51.088;3.096;2023-11-21T10:02:52;101567.13;;;13.47;100.00
66164;BME280;52962;51.088;3.096;2023-11-21T10:05:25;101568.97;;;13.51;100.00
66164;BME280;52962;51.088;3.096;2023-11-21T10:08:10;101570.03;;;13.62;100.00
66164;BME280;52962;51.088;3.096;2023-11-21T10:10:46;101571.13;;;13.73;100.00
66164;BME280;52962;51.088;3.096;2023-11-21T10:13:41;101575.63;;;13.78;100.00
66164;BME280;52962;51.088;3.096;2023-11-21T10:19:41;101573.31;;;13.96;100.00
66164;BME280;52962;51.088;3.096;2023-11-21T10:22:50;101577.91;;;14.06;100.00
66164;BME280;52962;51.088;3.096;2023-11-21T10:25:24;101578.88;;;14.11;100.00
66164;BME280;52962;51.088;3.096;2023-11-21T10:28:07;101579.91;;;14.19;100.00
66164;BME280;52962;51.088;3.096;2023-11-21T10:30:38;101579.06;;;14.22;100.00
66164;BME280;52962;51.088;3.096;2023-11-21T10:33:08;101581.09;;;14.36;100.00
66164;BME280;52962;51.088;3.096;2023-11-21T10:35:43;101580.28;;;14.40;100.00
66164;BME280;52962;51.088;3.096;2023-11-21T10:38:19;101584.88;;;14.49;100.00
66164;BME280;52962;51.088;3.096;2023-11-21T10:40:51;101585.66;;;14.44;100.00
66164;BME280;52962;51.088;3.096;2023-11-21T10:43:29;101585.94;;;14.62;100.00
66164;BME280;52962;51.088;3.096;2023-11-21T10:46:02;101578.97;;;14.70;100.00
66164;BME280;52962;51.088;3.096;2023-11-21T10:48:31;101590.44;;;14.69;100.00
66164;BME280;52962;51.088;3.096;2023-11-21T10:51:06;101585.97;;;14.65;100.00
66164;BME280;52962;51.088;3.096;2023-11-21T10:53:39;101579.72;;;14.61;100.00
66164;BME280;52962;51.088;3.096;2023-11-21T10:56:14;101581.50;;;14.62;100.00
66164;BME280;52962;51.088;3.096;2023-11-21T10:58:48;101587.56;;;14.52;100.00
66164;BME280;52962;51.088;3.096;2023-11-21T11:01:19;101588.56;;;14.60;100.00
66164;BME280;52962;51.088;3.096;2023-11-21T11:03:52;101587.75;;;14.66;100.00
66164;BME280;52962;51.088;3.096;2023-11-21T11:06:21;101590.59;;;14.78;100.00
66164;BME280;52962;51.088;3.096;2023-11-21T11:08:54;101594.88;;;14.70;100.00
66164;BME280;52962;51.088;3.096;2023-11-21T11:11:26;101592.06;;;14.59;100.00
66164;BME280;52962;51.088;3.096;2023-11-21T11:13:56;101589.28;;;14.49;100.00
66164;BME280;52962;51.088;3.096;2023-11-21T11:16:28;101594.66;;;14.56;100.00
66164;BME280;52962;51.088;3.096;2023-11-21T11:22:28;101591.38;;;14.71;100.00
66164;BME280;52962;51.088;3.096;2023-11-21T11:25:45;101596.63;;;14.68;100.00
66164;BME280;52962;51.088;3.096;2023-11-21T11:28:20;101591.06;;;14.50;100.00
66164;BME280;52962;51.088;3.096;2023-11-21T11:31:04;101598.16;;;14.51;100.00
66164;BME280;52962;51.088;3.096;2023-11-21T11:33:38;101599.00;;;14.48;100.00
66164;BME280;52962;51.088;3.096;2023-11-21T11:36:15;101603.50;;;14.54;100.00
66164;BME280;52962;51.088;3.096;2023-11-21T11:38:48;101606.38;;;14.69;100.00
66164;BME280;52962;51.088;3.096;2023-11-21T11:41:25;101604.47;;;14.62;100.00
66164;BME280;52962;51.088;3.096;2023-11-21T11:43:57;101597.03;;;14.39;100.00
66164;BME280;52962;51.088;3.096;2023-11-21T11:46:41;101603.88;;;14.25;100.00
66164;BME280;52962;51.088;3.096;2023-11-21T11:49:23;101599.38;;;14.21;100.00
66164;BME280;52962;51.088;3.096;2023-11-21T11:54:57;101611.88;;;14.28;100.00
66164;BME280;52962;51.088;3.096;2023-11-21T12:01:06;101618.41;;;14.47;100.00
66164;BME280;52962;51.088;3.096;2023-11-21T12:03:41;101614.06;;;14.52;100.00
66164;BME280;52962;51.088;3.096;2023-11-21T12:06:11;101623.13;;;14.68;100.00
66164;BME280;52962;51.088;3.096;2023-11-21T12:08:41;101623.84;;;14.56;100.00
66164;BME280;52962;51.088;3.096;2023-11-21T12:15:05;101623.53;;;14.38;100.00
66164;BME280;52962;51.088;3.096;2023-11-21T12:21:48;101633.13;;;14.31;100.00
66164;BME280;52962;51.088;3.096;2023-11-21T12:24:18;101639.25;;;14.29;100.00
66164;BME280;52962;51.088;3.096;2023-11-21T12:27:14;101642.03;;;14.36;100.00
66164;BME280;52962;51.088;3.096;2023-11-21T12:33:40;101643.06;;;14.43;100.00
66164;BME280;52962;51.088;3.096;2023-11-21T12:36:24;101637.97;;;14.55;100.00
66164;BME280;52962;51.088;3.096;2023-11-21T12:38:58;101641.72;;;14.69;100.00
66164;BME280;52962;51.088;3.096;2023-11-21T12:41:59;101649.50;;;14.59;100.00
66164;BME280;52962;51.088;3.096;2023-11-21T12:44:30;101660.91;;;14.52;100.00
66164;BME280;52962;51.088;3.096;2023-11-21T12:47:00;101657.41;;;14.54;100.00
66164;BME280;52962;51.088;3.096;2023-11-21T13:00:39;101651.66;;;14.31;100.00
66164;BME280;52962;51.088;3.096;2023-11-21T13:03:44;101661.75;;;14.51;100.00
66164;BME280;52962;51.088;3.096;2023-11-21T13:06:33;101665.97;;;14.41;100.00
66164;BME280;52962;51.088;3.096;2023-11-21T13:09:09;101659.91;;;14.45;100.00
66164;BME280;52962;51.088;3.096;2023-11-21T13:12:09;101673.34;;;14.56;100.00
66164;BME280;52962;51.088;3.096;2023-11-21T13:22:52;101684.81;;;14.55;100.00
66164;BME280;52962;51.088;3.096;2023-11-21T13:25:48;101672.47;;;14.60;100.00
66164;BME280;52962;51.088;3.096;2023-11-21T13:29:02;101682.38;;;14.70;100.00
66164;BME280;52962;51.088;3.096;2023-11-21T13:36:10;101684.69;;;14.49;100.00
66164;BME280;52962;51.088;3.096;2023-11-21T13:39:08;101689.88;;;14.43;100.00
66164;BME280;52962;51.088;3.096;2023-11-21T13:41:43;101692.56;;;14.44;100.00
66164;BME280;52962;51.088;3.096;2023-11-21T13:48:27;101696.97;;;14.44;100.00
66164;BME280;52962;51.088;3.096;2023-11-21T13:51:01;101695.09;;;14.39;100.00
66164;BME280;52962;51.088;3.096;2023-11-21T13:54:10;101713.97;;;14.55;100.00
66164;BME280;52962;51.088;3.096;2023-11-21T13:56:49;101715.44;;;14.40;100.00
66164;BME280;52962;51.088;3.096;2023-11-21T13:59:37;101709.94;;;14.30;100.00
66164;BME280;52962;51.088;3.096;2023-11-21T14:02:06;101705.34;;;14.21;100.00
66164;BME280;52962;51.088;3.096;2023-11-21T14:04:45;101715.56;;;14.03;100.00
66164;BME280;52962;51.088;3.096;2023-11-21T14:07:23;101719.78;;;13.93;100.00
66164;BME280;52962;51.088;3.096;2023-11-21T14:10:02;101733.69;;;13.83;100.00
66164;BME280;52962;51.088;3.096;2023-11-21T14:12:32;101730.09;;;13.80;100.00